sensor_id;sensor_type;location;lat;lon;timestamp;P1;durP1;ratioP1;P2;durP2;ratioP2
41623;SDS011;27319;50.306;18.926;2024-03-08T00:03:49;58.38;;;28.08;;
41623;SDS011;27319;50.306;18.926;2024-03-08T00:07:50;57.70;;;28.35;;
41623;SDS011;27319;50.306;18.926;2024-03-08T00:11:51;60.83;;;28.23;;
41623;SDS011;27319;50.306;18.926;2024-03-08T00:15:52;64.68;;;28.92;;
41623;SDS011;27319;50.306;18.926;2024-03-08T00:19:52;69.15;;;29.40;;
41623;SDS011;27319;50.306;18.926;2024-03-08T00:23:53;61.15;;;27.77;;
41623;SDS011;27319;50.306;18.926;2024-03-08T00:27:54;59.75;;;29.77;;
41623;SDS011;27319;50.306;18.926;2024-03-08T00:31:55;56.25;;;28.33;;
41623;SDS011;27319;50.306;18.926;2024-03-08T00:35:56;55.97;;;27.98;;
41623;SDS011;27319;50.306;18.926;2024-03-08T00:39:57;61.80;;;27.83;;
41623;SDS011;27319;50.306;18.926;2024-03-08T00:43:58;60.70;;;28.08;;
41623;SDS011;27319;50.306;18.926;2024-03-08T00:47:58;64.65;;;27.50;;
41623;SDS011;27319;50.306;18.926;2024-03-08T00:51:59;55.03;;;27.35;;
41623;SDS011;27319;50.306;18.926;2024-03-08T00:56:00;56.20;;;27.73;;
41623;SDS011;27319;50.306;18.926;2024-03-08T01:00:02;55.13;;;25.52;;
41623;SDS011;27319;50.306;18.926;2024-03-08T01:04:02;54.40;;;27.00;;
41623;SDS011;27319;50.306;18.926;2024-03-08T01:08:02;56.03;;;26.73;;
41623;SDS011;27319;50.306;18.926;2024-03-08T01:12:03;58.78;;;26.63;;
41623;SDS011;27319;50.306;18.926;2024-03-08T01:16:04;56.28;;;26.42;;
41623;SDS011;27319;50.306;18.926;2024-03-08T01:20:05;59.53;;;26.75;;
41623;SDS011;27319;50.306;18.926;2024-03-08T01:24:08;54.42;;;25.50;;
41623;SDS011;27319;50.306;18.926;2024-03-08T01:28:09;60.80;;;27.30;;
41623;SDS011;27319;50.306;18.926;2024-03-08T01:32:10;49.53;;;24.63;;
41623;SDS011;27319;50.306;18.926;2024-03-08T01:36:11;60.33;;;26.70;;
41623;SDS011;27319;50.306;18.926;2024-03-08T01:40:11;61.03;;;27.33;;
41623;SDS011;27319;50.306;18.926;2024-03-08T01:44:12;59.05;;;28.27;;
41623;SDS011;27319;50.306;18.926;2024-03-08T01:48:14;57.42;;;28.88;;
41623;SDS011;27319;50.306;18.926;2024-03-08T01:52:14;68.25;;;30.23;;
41623;SDS011;27319;50.306;18.926;2024-03-08T01:56:15;68.43;;;29.95;;
41623;SDS011;27319;50.306;18.926;2024-03-08T02:00:16;59.10;;;29.55;;
41623;SDS011;27319;50.306;18.926;2024-03-08T02:04:16;69.47;;;30.83;;
41623;SDS011;27319;50.306;18.926;2024-03-08T02:08:18;60.25;;;28.23;;
41623;SDS011;27319;50.306;18.926;2024-03-08T02:12:18;59.22;;;27.85;;
41623;SDS011;27319;50.306;18.926;2024-03-08T02:16:22;54.85;;;27.35;;
41623;SDS011;27319;50.306;18.926;2024-03-08T02:20:23;59.33;;;27.10;;
41623;SDS011;27319;50.306;18.926;2024-03-08T02:24:23;57.60;;;26.50;;
41623;SDS011;27319;50.306;18.926;2024-03-08T02:28:24;54.97;;;25.63;;
41623;SDS011;27319;50.306;18.926;2024-03-08T02:32:25;54.90;;;26.58;;
41623;SDS011;27319;50.306;18.926;2024-03-08T02:36:26;58.80;;;25.98;;
41623;SDS011;27319;50.306;18.926;2024-03-08T02:40:26;61.40;;;26.83;;
41623;SDS011;27319;50.306;18.926;2024-03-08T02:44:27;51.53;;;26.17;;
41623;SDS011;27319;50.306;18.926;2024-03-08T02:48:28;50.90;;;26.58;;
41623;SDS011;27319;50.306;18.926;2024-03-08T02:52:29;54.22;;;25.67;;
41623;SDS011;27319;50.306;18.926;2024-03-08T02:56:30;63.67;;;27.40;;
41623;SDS011;27319;50.306;18.926;2024-03-08T03:00:30;55.35;;;26.25;;
41623;SDS011;27319;50.306;18.926;2024-03-08T03:04:31;54.15;;;24.48;;
41623;SDS011;27319;50.306;18.926;2024-03-08T03:08:31;52.97;;;24.55;;
41623;SDS011;27319;50.306;18.926;2024-03-08T03:12:32;48.80;;;24.10;;
41623;SDS011;27319;50.306;18.926;2024-03-08T03:16:33;51.28;;;24.08;;
41623;SDS011;27319;50.306;18.926;2024-03-08T03:20:34;49.47;;;23.42;;
41623;SDS011;27319;50.306;18.926;2024-03-08T03:24:35;47.00;;;23.33;;
41623;SDS011;27319;50.306;18.926;2024-03-08T03:28:36;47.75;;;24.08;;
41623;SDS011;27319;50.306;18.926;2024-03-08T03:32:40;46.80;;;24.33;;
41623;SDS011;27319;50.306;18.926;2024-03-08T03:36:41;51.97;;;23.52;;
41623;SDS011;27319;50.306;18.926;2024-03-08T03:40:41;47.53;;;24.17;;
41623;SDS011;27319;50.306;18.926;2024-03-08T03:44:46;50.90;;;24.42;;
41623;SDS011;27319;50.306;18.926;2024-03-08T03:48:46;53.25;;;24.85;;
41623;SDS011;27319;50.306;18.926;2024-03-08T03:52:47;55.85;;;25.58;;
41623;SDS011;27319;50.306;18.926;2024-03-08T03:56:48;51.33;;;23.55;;
41623;SDS011;27319;50.306;18.926;2024-03-08T04:00:49;45.55;;;22.70;;
41623;SDS011;27319;50.306;18.926;2024-03-08T04:04:49;48.70;;;24.40;;
41623;SDS011;27319;50.306;18.926;2024-03-08T04:08:50;48.20;;;23.05;;
41623;SDS011;27319;50.306;18.926;2024-03-08T04:12:51;41.92;;;22.25;;
41623;SDS011;27319;50.306;18.926;2024-03-08T04:16:52;46.15;;;22.35;;
41623;SDS011;27319;50.306;18.926;2024-03-08T04:20:53;47.90;;;22.40;;
41623;SDS011;27319;50.306;18.926;2024-03-08T04:24:54;42.95;;;23.38;;
41623;SDS011;27319;50.306;18.926;2024-03-08T04:28:54;41.42;;;21.60;;
41623;SDS011;27319;50.306;18.926;2024-03-08T04:32:55;44.90;;;22.40;;
41623;SDS011;27319;50.306;18.926;2024-03-08T04:36:59;40.47;;;21.00;;
41623;SDS011;27319;50.306;18.926;2024-03-08T04:41:00;47.50;;;23.35;;
41623;SDS011;27319;50.306;18.926;2024-03-08T04:45:01;45.60;;;22.40;;
41623;SDS011;27319;50.306;18.926;2024-03-08T04:49:02;44.38;;;22.48;;
41623;SDS011;27319;50.306;18.926;2024-03-08T04:53:03;44.65;;;21.73;;
41623;SDS011;27319;50.306;18.926;2024-03-08T04:57:04;45.30;;;21.67;;
41623;SDS011;27319;50.306;18.926;2024-03-08T05:01:04;47.63;;;22.88;;
41623;SDS011;27319;50.306;18.926;2024-03-08T05:05:05;52.47;;;24.25;;
41623;SDS011;27319;50.306;18.926;2024-03-08T05:09:06;47.03;;;23.63;;
41623;SDS011;27319;50.306;18.926;2024-03-08T05:13:07;43.40;;;21.23;;
41623;SDS011;27319;50.306;18.926;2024-03-08T05:17:03;42.13;;;20.63;;
41623;SDS011;27319;50.306;18.926;2024-03-08T05:20:07;48.75;;;23.00;;
41623;SDS011;27319;50.306;18.926;2024-03-08T05:24:08;43.78;;;21.58;;
41623;SDS011;27319;50.306;18.926;2024-03-08T05:28:09;45.17;;;22.58;;
41623;SDS011;27319;50.306;18.926;2024-03-08T05:32:09;48.28;;;23.13;;
41623;SDS011;27319;50.306;18.926;2024-03-08T05:36:10;51.28;;;23.20;;
41623;SDS011;27319;50.306;18.926;2024-03-08T05:40:11;61.53;;;27.73;;
41623;SDS011;27319;50.306;18.926;2024-03-08T05:44:11;54.67;;;26.08;;
41623;SDS011;27319;50.306;18.926;2024-03-08T05:48:13;55.95;;;27.95;;
41623;SDS011;27319;50.306;18.926;2024-03-08T05:52:13;53.25;;;25.05;;
41623;SDS011;27319;50.306;18.926;2024-03-08T05:56:13;42.33;;;21.48;;
41623;SDS011;27319;50.306;18.926;2024-03-08T06:00:14;47.97;;;22.63;;
41623;SDS011;27319;50.306;18.926;2024-03-08T06:04:15;47.50;;;23.08;;
41623;SDS011;27319;50.306;18.926;2024-03-08T06:08:16;42.40;;;23.48;;
41623;SDS011;27319;50.306;18.926;2024-03-08T06:12:16;37.47;;;21.25;;
41623;SDS011;27319;50.306;18.926;2024-03-08T06:16:18;47.42;;;21.60;;
41623;SDS011;27319;50.306;18.926;2024-03-08T06:20:18;41.03;;;22.10;;
41623;SDS011;27319;50.306;18.926;2024-03-08T06:24:19;39.42;;;19.92;;
41623;SDS011;27319;50.306;18.926;2024-03-08T06:28:20;43.88;;;20.92;;
41623;SDS011;27319;50.306;18.926;2024-03-08T06:32:21;42.78;;;23.65;;
41623;SDS011;27319;50.306;18.926;2024-03-08T06:36:21;36.95;;;19.88;;
41623;SDS011;27319;50.306;18.926;2024-03-08T06:40:22;38.13;;;19.52;;
41623;SDS011;27319;50.306;18.926;2024-03-08T06:44:20;38.50;;;20.60;;
41623;SDS011;27319;50.306;18.926;2024-03-08T06:47:22;41.42;;;21.10;;
41623;SDS011;27319;50.306;18.926;2024-03-08T06:50:26;36.97;;;20.20;;
41623;SDS011;27319;50.306;18.926;2024-03-08T06:53:27;39.67;;;20.77;;
41623;SDS011;27319;50.306;18.926;2024-03-08T06:56:28;36.53;;;20.67;;
41623;SDS011;27319;50.306;18.926;2024-03-08T06:59:30;38.75;;;19.75;;
41623;SDS011;27319;50.306;18.926;2024-03-08T07:02:36;41.90;;;21.00;;
41623;SDS011;27319;50.306;18.926;2024-03-08T07:05:36;36.83;;;19.23;;
41623;SDS011;27319;50.306;18.926;2024-03-08T07:08:38;33.92;;;19.05;;
41623;SDS011;27319;50.306;18.926;2024-03-08T07:11:39;32.85;;;19.25;;
41623;SDS011;27319;50.306;18.926;2024-03-08T07:14:41;34.15;;;18.98;;
41623;SDS011;27319;50.306;18.926;2024-03-08T07:17:42;31.75;;;18.73;;
41623;SDS011;27319;50.306;18.926;2024-03-08T07:21:43;32.15;;;17.90;;
41623;SDS011;27319;50.306;18.926;2024-03-08T07:25:43;28.88;;;17.27;;
41623;SDS011;27319;50.306;18.926;2024-03-08T07:29:44;30.67;;;18.73;;
41623;SDS011;27319;50.306;18.926;2024-03-08T07:33:44;33.88;;;18.52;;
41623;SDS011;27319;50.306;18.926;2024-03-08T07:37:44;35.67;;;18.63;;
41623;SDS011;27319;50.306;18.926;2024-03-08T07:41:45;29.75;;;17.25;;
41623;SDS011;27319;50.306;18.926;2024-03-08T07:45:46;33.67;;;17.20;;
41623;SDS011;27319;50.306;18.926;2024-03-08T07:49:47;31.98;;;18.70;;
41623;SDS011;27319;50.306;18.926;2024-03-08T07:53:48;35.95;;;17.85;;
41623;SDS011;27319;50.306;18.926;2024-03-08T07:57:49;38.45;;;19.67;;
41623;SDS011;27319;50.306;18.926;2024-03-08T08:01:49;33.30;;;19.52;;
41623;SDS011;27319;50.306;18.926;2024-03-08T08:05:50;42.05;;;19.25;;
41623;SDS011;27319;50.306;18.926;2024-03-08T08:09:52;34.72;;;19.33;;
41623;SDS011;27319;50.306;18.926;2024-03-08T08:13:52;36.63;;;19.50;;
41623;SDS011;27319;50.306;18.926;2024-03-08T08:17:53;40.30;;;23.02;;
41623;SDS011;27319;50.306;18.926;2024-03-08T08:21:53;40.92;;;21.50;;
41623;SDS011;27319;50.306;18.926;2024-03-08T08:25:54;39.83;;;21.83;;
41623;SDS011;27319;50.306;18.926;2024-03-08T08:29:55;32.08;;;19.08;;
41623;SDS011;27319;50.306;18.926;2024-03-08T08:33:56;39.83;;;21.77;;
41623;SDS011;27319;50.306;18.926;2024-03-08T08:37:56;37.58;;;19.98;;
41623;SDS011;27319;50.306;18.926;2024-03-08T08:41:57;36.75;;;18.55;;
41623;SDS011;27319;50.306;18.926;2024-03-08T08:45:58;35.63;;;19.45;;
41623;SDS011;27319;50.306;18.926;2024-03-08T08:49:59;33.53;;;17.67;;
41623;SDS011;27319;50.306;18.926;2024-03-08T08:54:00;33.80;;;18.27;;
41623;SDS011;27319;50.306;18.926;2024-03-08T08:58:01;33.25;;;19.50;;
41623;SDS011;27319;50.306;18.926;2024-03-08T09:02:02;33.20;;;19.20;;
41623;SDS011;27319;50.306;18.926;2024-03-08T09:06:08;39.67;;;20.02;;
41623;SDS011;27319;50.306;18.926;2024-03-08T09:10:06;32.47;;;19.27;;
41623;SDS011;27319;50.306;18.926;2024-03-08T09:14:07;37.33;;;19.27;;
41623;SDS011;27319;50.306;18.926;2024-03-08T09:18:07;38.03;;;20.52;;
41623;SDS011;27319;50.306;18.926;2024-03-08T09:22:08;40.53;;;20.33;;
41623;SDS011;27319;50.306;18.926;2024-03-08T09:26:09;37.90;;;21.20;;
41623;SDS011;27319;50.306;18.926;2024-03-08T09:30:10;36.03;;;19.02;;
41623;SDS011;27319;50.306;18.926;2024-03-08T09:34:11;40.20;;;20.20;;
41623;SDS011;27319;50.306;18.926;2024-03-08T09:38:12;31.60;;;19.15;;
41623;SDS011;27319;50.306;18.926;2024-03-08T09:42:13;36.55;;;18.90;;
41623;SDS011;27319;50.306;18.926;2024-03-08T09:46:14;34.15;;;19.70;;
41623;SDS011;27319;50.306;18.926;2024-03-08T09:50:14;34.70;;;21.00;;
41623;SDS011;27319;50.306;18.926;2024-03-08T09:54:15;45.08;;;21.38;;
41623;SDS011;27319;50.306;18.926;2024-03-08T09:58:16;31.02;;;17.58;;
41623;SDS011;27319;50.306;18.926;2024-03-08T10:02:14;36.28;;;21.30;;
41623;SDS011;27319;50.306;18.926;2024-03-08T10:06:13;36.25;;;19.88;;
41623;SDS011;27319;50.306;18.926;2024-03-08T10:10:14;41.03;;;19.02;;
41623;SDS011;27319;50.306;18.926;2024-03-08T10:14:14;36.78;;;20.63;;
41623;SDS011;27319;50.306;18.926;2024-03-08T10:18:15;38.17;;;19.63;;
41623;SDS011;27319;50.306;18.926;2024-03-08T10:22:16;31.60;;;18.55;;
41623;SDS011;27319;50.306;18.926;2024-03-08T10:26:17;32.20;;;18.25;;
41623;SDS011;27319;50.306;18.926;2024-03-08T10:30:18;35.17;;;18.15;;
41623;SDS011;27319;50.306;18.926;2024-03-08T10:34:19;33.75;;;18.10;;
41623;SDS011;27319;50.306;18.926;2024-03-08T10:38:20;29.58;;;17.10;;
41623;SDS011;27319;50.306;18.926;2024-03-08T10:42:21;31.08;;;18.20;;
41623;SDS011;27319;50.306;18.926;2024-03-08T10:46:26;32.38;;;17.98;;
41623;SDS011;27319;50.306;18.926;2024-03-08T10:50:12;30.52;;;18.17;;
41623;SDS011;27319;50.306;18.926;2024-03-08T10:53:21;32.90;;;18.48;;
41623;SDS011;27319;50.306;18.926;2024-03-08T10:56:27;30.38;;;18.40;;
41623;SDS011;27319;50.306;18.926;2024-03-08T11:00:27;36.35;;;19.00;;
41623;SDS011;27319;50.306;18.926;2024-03-08T11:04:29;35.03;;;19.67;;
41623;SDS011;27319;50.306;18.926;2024-03-08T11:08:30;30.15;;;19.20;;
41623;SDS011;27319;50.306;18.926;2024-03-08T11:12:40;33.72;;;18.63;;
41623;SDS011;27319;50.306;18.926;2024-03-08T11:19:55;49.88;;;28.55;;
41623;SDS011;27319;50.306;18.926;2024-03-08T11:24:00;41.92;;;24.20;;
41623;SDS011;27319;50.306;18.926;2024-03-08T11:28:08;31.10;;;18.05;;
41623;SDS011;27319;50.306;18.926;2024-03-08T11:35:49;38.85;;;20.92;;
41623;SDS011;27319;50.306;18.926;2024-03-08T11:39:53;30.20;;;18.15;;
41623;SDS011;27319;50.306;18.926;2024-03-08T11:44:05;34.78;;;18.85;;
41623;SDS011;27319;50.306;18.926;2024-03-08T11:48:08;31.42;;;17.55;;
41623;SDS011;27319;50.306;18.926;2024-03-08T11:52:13;30.45;;;18.45;;
41623;SDS011;27319;50.306;18.926;2024-03-08T11:56:11;28.55;;;18.02;;
41623;SDS011;27319;50.306;18.926;2024-03-08T12:00:15;38.40;;;19.60;;
41623;SDS011;27319;50.306;18.926;2024-03-08T12:04:15;33.60;;;16.50;;
41623;SDS011;27319;50.306;18.926;2024-03-08T12:08:18;28.83;;;18.02;;
41623;SDS011;27319;50.306;18.926;2024-03-08T12:12:20;30.88;;;18.17;;
41623;SDS011;27319;50.306;18.926;2024-03-08T12:16:23;32.40;;;17.67;;
41623;SDS011;27319;50.306;18.926;2024-03-08T12:19:49;34.30;;;18.30;;
41623;SDS011;27319;50.306;18.926;2024-03-08T12:23:40;32.15;;;16.92;;
41623;SDS011;27319;50.306;18.926;2024-03-08T12:27:50;29.65;;;17.27;;
41623;SDS011;27319;50.306;18.926;2024-03-08T12:31:52;25.92;;;16.35;;
41623;SDS011;27319;50.306;18.926;2024-03-08T12:35:52;29.58;;;17.70;;
41623;SDS011;27319;50.306;18.926;2024-03-08T12:39:54;30.00;;;18.27;;
41623;SDS011;27319;50.306;18.926;2024-03-08T12:43:56;29.58;;;17.98;;
41623;SDS011;27319;50.306;18.926;2024-03-08T12:47:54;30.25;;;17.35;;
41623;SDS011;27319;50.306;18.926;2024-03-08T12:51:55;34.85;;;17.80;;
41623;SDS011;27319;50.306;18.926;2024-03-08T12:55:56;33.47;;;19.60;;
41623;SDS011;27319;50.306;18.926;2024-03-08T13:00:09;27.10;;;17.95;;
41623;SDS011;27319;50.306;18.926;2024-03-08T13:04:09;42.03;;;17.63;;
41623;SDS011;27319;50.306;18.926;2024-03-08T13:07:45;28.95;;;17.17;;
41623;SDS011;27319;50.306;18.926;2024-03-08T13:10:46;28.00;;;17.60;;
41623;SDS011;27319;50.306;18.926;2024-03-08T13:13:48;31.95;;;20.17;;
41623;SDS011;27319;50.306;18.926;2024-03-08T13:16:48;30.70;;;19.35;;
41623;SDS011;27319;50.306;18.926;2024-03-08T13:19:49;64.00;;;30.83;;
41623;SDS011;27319;50.306;18.926;2024-03-08T13:23:51;33.72;;;20.38;;
41623;SDS011;27319;50.306;18.926;2024-03-08T13:27:51;30.08;;;17.80;;
41623;SDS011;27319;50.306;18.926;2024-03-08T13:31:52;31.10;;;17.65;;
41623;SDS011;27319;50.306;18.926;2024-03-08T13:35:53;31.65;;;17.77;;
41623;SDS011;27319;50.306;18.926;2024-03-08T13:39:54;28.55;;;16.35;;
41623;SDS011;27319;50.306;18.926;2024-03-08T13:43:55;33.90;;;18.80;;
41623;SDS011;27319;50.306;18.926;2024-03-08T13:47:55;30.48;;;19.05;;
41623;SDS011;27319;50.306;18.926;2024-03-08T13:51:56;30.10;;;17.08;;
41623;SDS011;27319;50.306;18.926;2024-03-08T13:55:57;32.33;;;18.55;;
41623;SDS011;27319;50.306;18.926;2024-03-08T13:59:58;32.47;;;19.10;;
41623;SDS011;27319;50.306;18.926;2024-03-08T14:03:58;31.35;;;17.80;;
41623;SDS011;27319;50.306;18.926;2024-03-08T14:08:02;33.63;;;17.83;;
41623;SDS011;27319;50.306;18.926;2024-03-08T14:12:03;32.63;;;18.65;;
41623;SDS011;27319;50.306;18.926;2024-03-08T14:16:04;33.40;;;19.98;;
41623;SDS011;27319;50.306;18.926;2024-03-08T14:20:05;31.60;;;19.58;;
41623;SDS011;27319;50.306;18.926;2024-03-08T14:24:06;35.03;;;21.75;;
41623;SDS011;27319;50.306;18.926;2024-03-08T14:28:06;40.47;;;23.58;;
41623;SDS011;27319;50.306;18.926;2024-03-08T14:32:07;34.28;;;20.40;;
41623;SDS011;27319;50.306;18.926;2024-03-08T14:36:08;32.50;;;18.55;;
41623;SDS011;27319;50.306;18.926;2024-03-08T14:40:09;35.00;;;20.30;;
41623;SDS011;27319;50.306;18.926;2024-03-08T14:44:10;34.38;;;19.55;;
41623;SDS011;27319;50.306;18.926;2024-03-08T14:48:14;33.95;;;18.55;;
41623;SDS011;27319;50.306;18.926;2024-03-08T14:52:15;32.58;;;19.63;;
41623;SDS011;27319;50.306;18.926;2024-03-08T14:56:15;49.97;;;28.60;;
41623;SDS011;27319;50.306;18.926;2024-03-08T14:59:19;35.55;;;19.83;;
41623;SDS011;27319;50.306;18.926;2024-03-08T15:03:26;38.33;;;19.45;;
41623;SDS011;27319;50.306;18.926;2024-03-08T15:07:26;34.03;;;19.75;;
41623;SDS011;27319;50.306;18.926;2024-03-08T15:11:31;39.55;;;21.02;;
41623;SDS011;27319;50.306;18.926;2024-03-08T15:15:34;34.60;;;18.92;;
41623;SDS011;27319;50.306;18.926;2024-03-08T15:19:38;31.08;;;18.05;;
41623;SDS011;27319;50.306;18.926;2024-03-08T15:23:39;31.50;;;17.20;;
41623;SDS011;27319;50.306;18.926;2024-03-08T15:27:39;29.73;;;18.33;;
41623;SDS011;27319;50.306;18.926;2024-03-08T15:31:42;34.47;;;19.02;;
41623;SDS011;27319;50.306;18.926;2024-03-08T15:35:04;34.97;;;19.25;;
41623;SDS011;27319;50.306;18.926;2024-03-08T15:39:05;36.00;;;20.52;;
41623;SDS011;27319;50.306;18.926;2024-03-08T15:43:06;32.47;;;18.75;;
41623;SDS011;27319;50.306;18.926;2024-03-08T15:47:11;38.53;;;18.80;;
41623;SDS011;27319;50.306;18.926;2024-03-08T15:51:12;35.75;;;19.83;;
41623;SDS011;27319;50.306;18.926;2024-03-08T15:55:16;36.38;;;19.35;;
41623;SDS011;27319;50.306;18.926;2024-03-08T15:59:16;33.55;;;17.83;;
41623;SDS011;27319;50.306;18.926;2024-03-08T16:03:17;35.95;;;19.90;;
41623;SDS011;27319;50.306;18.926;2024-03-08T16:07:18;35.00;;;20.58;;
41623;SDS011;27319;50.306;18.926;2024-03-08T16:11:18;36.85;;;21.20;;
41623;SDS011;27319;50.306;18.926;2024-03-08T16:15:19;31.75;;;19.40;;
41623;SDS011;27319;50.306;18.926;2024-03-08T16:19:20;34.83;;;20.13;;
41623;SDS011;27319;50.306;18.926;2024-03-08T16:23:21;34.00;;;19.40;;
41623;SDS011;27319;50.306;18.926;2024-03-08T16:27:21;45.22;;;22.50;;
41623;SDS011;27319;50.306;18.926;2024-03-08T16:31:22;43.35;;;23.55;;
41623;SDS011;27319;50.306;18.926;2024-03-08T16:35:26;44.65;;;22.70;;
41623;SDS011;27319;50.306;18.926;2024-03-08T16:39:28;45.95;;;23.30;;
41623;SDS011;27319;50.306;18.926;2024-03-08T16:43:29;44.80;;;25.02;;
41623;SDS011;27319;50.306;18.926;2024-03-08T16:47:30;49.42;;;25.70;;
41623;SDS011;27319;50.306;18.926;2024-03-08T16:51:32;48.75;;;24.88;;
41623;SDS011;27319;50.306;18.926;2024-03-08T16:55:33;46.50;;;24.85;;
41623;SDS011;27319;50.306;18.926;2024-03-08T16:59:34;54.38;;;28.13;;
41623;SDS011;27319;50.306;18.926;2024-03-08T17:03:44;50.22;;;26.65;;
41623;SDS011;27319;50.306;18.926;2024-03-08T17:07:49;54.03;;;27.27;;
41623;SDS011;27319;50.306;18.926;2024-03-08T17:11:45;56.08;;;30.60;;
41623;SDS011;27319;50.306;18.926;2024-03-08T17:15:46;68.68;;;31.75;;
41623;SDS011;27319;50.306;18.926;2024-03-08T17:19:47;62.22;;;32.20;;
41623;SDS011;27319;50.306;18.926;2024-03-08T17:23:48;61.90;;;32.70;;
41623;SDS011;27319;50.306;18.926;2024-03-08T17:27:55;66.88;;;35.03;;
41623;SDS011;27319;50.306;18.926;2024-03-08T17:31:56;64.93;;;33.40;;
41623;SDS011;27319;50.306;18.926;2024-03-08T17:35:57;62.25;;;32.40;;
41623;SDS011;27319;50.306;18.926;2024-03-08T17:39:58;63.00;;;32.33;;
41623;SDS011;27319;50.306;18.926;2024-03-08T17:43:58;63.83;;;32.60;;
41623;SDS011;27319;50.306;18.926;2024-03-08T17:47:59;57.22;;;30.55;;
41623;SDS011;27319;50.306;18.926;2024-03-08T17:52:00;59.72;;;31.00;;
41623;SDS011;27319;50.306;18.926;2024-03-08T17:55:16;63.45;;;33.80;;
41623;SDS011;27319;50.306;18.926;2024-03-08T17:59:16;70.53;;;36.78;;
41623;SDS011;27319;50.306;18.926;2024-03-08T18:03:17;71.72;;;36.60;;
41623;SDS011;27319;50.306;18.926;2024-03-08T18:07:18;81.45;;;38.65;;
41623;SDS011;27319;50.306;18.926;2024-03-08T18:11:19;85.03;;;41.30;;
41623;SDS011;27319;50.306;18.926;2024-03-08T18:15:26;90.05;;;42.05;;
41623;SDS011;27319;50.306;18.926;2024-03-08T18:19:24;76.22;;;38.70;;
41623;SDS011;27319;50.306;18.926;2024-03-08T18:23:24;69.28;;;34.88;;
41623;SDS011;27319;50.306;18.926;2024-03-08T18:27:25;69.32;;;34.70;;
41623;SDS011;27319;50.306;18.926;2024-03-08T18:31:26;71.55;;;35.90;;
41623;SDS011;27319;50.306;18.926;2024-03-08T18:35:27;81.25;;;35.83;;
41623;SDS011;27319;50.306;18.926;2024-03-08T18:39:28;70.47;;;35.33;;
41623;SDS011;27319;50.306;18.926;2024-03-08T18:43:34;66.82;;;33.33;;
41623;SDS011;27319;50.306;18.926;2024-03-08T18:46:36;68.75;;;34.05;;
41623;SDS011;27319;50.306;18.926;2024-03-08T18:49:39;77.95;;;36.00;;
41623;SDS011;27319;50.306;18.926;2024-03-08T18:52:40;71.90;;;36.72;;
41623;SDS011;27319;50.306;18.926;2024-03-08T18:55:42;80.72;;;39.38;;
41623;SDS011;27319;50.306;18.926;2024-03-08T18:58:44;77.60;;;37.88;;
41623;SDS011;27319;50.306;18.926;2024-03-08T19:02:45;76.00;;;38.72;;
41623;SDS011;27319;50.306;18.926;2024-03-08T19:06:46;74.93;;;38.75;;
41623;SDS011;27319;50.306;18.926;2024-03-08T19:10:47;73.75;;;38.03;;
41623;SDS011;27319;50.306;18.926;2024-03-08T19:14:22;84.63;;;39.45;;
41623;SDS011;27319;50.306;18.926;2024-03-08T19:18:23;71.15;;;36.00;;
41623;SDS011;27319;50.306;18.926;2024-03-08T19:22:24;66.45;;;34.65;;
41623;SDS011;27319;50.306;18.926;2024-03-08T19:25:54;79.20;;;37.40;;
41623;SDS011;27319;50.306;18.926;2024-03-08T19:29:54;79.90;;;37.13;;
41623;SDS011;27319;50.306;18.926;2024-03-08T19:33:55;79.18;;;40.00;;
41623;SDS011;27319;50.306;18.926;2024-03-08T19:37:59;78.43;;;38.03;;
41623;SDS011;27319;50.306;18.926;2024-03-08T19:42:00;83.40;;;39.97;;
41623;SDS011;27319;50.306;18.926;2024-03-08T19:46:01;90.57;;;42.45;;
41623;SDS011;27319;50.306;18.926;2024-03-08T19:50:02;98.55;;;44.58;;
41623;SDS011;27319;50.306;18.926;2024-03-08T19:54:03;94.60;;;44.42;;
41623;SDS011;27319;50.306;18.926;2024-03-08T19:58:03;96.05;;;45.85;;
41623;SDS011;27319;50.306;18.926;2024-03-08T20:02:04;97.75;;;46.67;;
41623;SDS011;27319;50.306;18.926;2024-03-08T20:06:05;91.40;;;45.22;;
41623;SDS011;27319;50.306;18.926;2024-03-08T20:10:06;89.22;;;44.13;;
41623;SDS011;27319;50.306;18.926;2024-03-08T20:14:07;92.72;;;46.17;;
41623;SDS011;27319;50.306;18.926;2024-03-08T20:18:07;93.43;;;45.75;;
41623;SDS011;27319;50.306;18.926;2024-03-08T20:22:08;91.05;;;43.50;;
41623;SDS011;27319;50.306;18.926;2024-03-08T20:26:11;85.63;;;44.30;;
41623;SDS011;27319;50.306;18.926;2024-03-08T20:30:13;94.28;;;44.95;;
41623;SDS011;27319;50.306;18.926;2024-03-08T20:34:14;91.45;;;41.03;;
41623;SDS011;27319;50.306;18.926;2024-03-08T20:38:15;90.38;;;43.25;;
41623;SDS011;27319;50.306;18.926;2024-03-08T20:42:16;91.75;;;43.20;;
41623;SDS011;27319;50.306;18.926;2024-03-08T20:46:17;90.45;;;42.15;;
41623;SDS011;27319;50.306;18.926;2024-03-08T20:50:18;91.97;;;42.10;;
41623;SDS011;27319;50.306;18.926;2024-03-08T20:54:19;86.13;;;40.13;;
41623;SDS011;27319;50.306;18.926;2024-03-08T20:58:20;86.05;;;41.00;;
41623;SDS011;27319;50.306;18.926;2024-03-08T21:02:20;96.95;;;43.13;;
41623;SDS011;27319;50.306;18.926;2024-03-08T21:06:21;94.93;;;43.38;;
41623;SDS011;27319;50.306;18.926;2024-03-08T21:10:25;96.28;;;44.80;;
41623;SDS011;27319;50.306;18.926;2024-03-08T21:14:25;100.43;;;44.05;;
41623;SDS011;27319;50.306;18.926;2024-03-08T21:18:26;96.50;;;44.95;;
41623;SDS011;27319;50.306;18.926;2024-03-08T21:22:27;98.57;;;45.58;;
41623;SDS011;27319;50.306;18.926;2024-03-08T21:26:28;99.25;;;45.90;;
41623;SDS011;27319;50.306;18.926;2024-03-08T21:30:29;100.82;;;44.88;;
41623;SDS011;27319;50.306;18.926;2024-03-08T21:34:29;97.57;;;44.33;;
41623;SDS011;27319;50.306;18.926;2024-03-08T21:38:32;98.15;;;46.92;;
41623;SDS011;27319;50.306;18.926;2024-03-08T21:42:33;96.10;;;45.40;;
41623;SDS011;27319;50.306;18.926;2024-03-08T21:46:34;101.07;;;44.40;;
41623;SDS011;27319;50.306;18.926;2024-03-08T21:50:35;95.30;;;44.13;;
41623;SDS011;27319;50.306;18.926;2024-03-08T21:54:36;91.32;;;44.33;;
41623;SDS011;27319;50.306;18.926;2024-03-08T21:58:37;93.43;;;43.45;;
41623;SDS011;27319;50.306;18.926;2024-03-08T22:02:41;97.82;;;44.33;;
41623;SDS011;27319;50.306;18.926;2024-03-08T22:06:38;94.30;;;46.03;;
41623;SDS011;27319;50.306;18.926;2024-03-08T22:10:39;99.80;;;44.45;;
41623;SDS011;27319;50.306;18.926;2024-03-08T22:14:40;95.82;;;43.80;;
41623;SDS011;27319;50.306;18.926;2024-03-08T22:18:41;89.40;;;42.17;;
41623;SDS011;27319;50.306;18.926;2024-03-08T22:21:42;85.38;;;41.92;;
41623;SDS011;27319;50.306;18.926;2024-03-08T22:25:42;89.45;;;42.17;;
41623;SDS011;27319;50.306;18.926;2024-03-08T22:29:43;92.45;;;41.83;;
41623;SDS011;27319;50.306;18.926;2024-03-08T22:33:44;80.53;;;39.15;;
41623;SDS011;27319;50.306;18.926;2024-03-08T22:37:45;91.20;;;42.58;;
41623;SDS011;27319;50.306;18.926;2024-03-08T22:41:46;89.95;;;41.20;;
41623;SDS011;27319;50.306;18.926;2024-03-08T22:45:47;87.43;;;38.75;;
41623;SDS011;27319;50.306;18.926;2024-03-08T22:49:48;85.45;;;39.45;;